Time;durP1;ratioP1;P1;durP2;ratioP2;P2;SDS_P1;SDS_P2;PMS_P1;PMS_P2;Temp;Humidity;BMP_temperature;BMP_pressure;BME280_temperature;BME280_humidity;BME280_pressure;Samples;Min_cycle;Max_cycle;Signal;HPM_P1;HPM_P2
2023/02/28 00:03:16;;;;;;;34.20;11.90;;;;;;;-2.00;68.50;99868.52;435776;1252;108423;-39
2023/02/28 00:13:23;;;;;;;32.10;13.30;;;;;;;-2.06;69.05;99874.48;435772;1252;99211;-40
2023/02/28 00:23:30;;;;;;;26.90;10.70;;;;;;;-1.98;69.05;99880.46;435675;1250;110385;-40
2023/02/28 00:33:37;;;;;;;42.90;17.90;;;;;;;-1.93;69.38;99882.42;435854;1249;99629;-39
2023/02/28 00:43:45;;;;;;;58.40;21.70;;;;;;;-1.97;69.52;99874.28;435933;1252;111632;-39
2023/02/28 00:53:52;;;;;;;41.90;14.10;;;;;;;-2.08;69.91;99868.31;435952;1261;107307;-39
2023/02/28 01:03:59;;;;;;;36.20;16.50;;;;;;;-2.37;70.20;99866.21;435941;1250;99313;-38
2023/02/28 01:14:06;;;;;;;45.10;16.60;;;;;;;-2.65;70.56;99862.42;435957;1253;111772;-38
2023/02/28 01:24:14;;;;;;;52.40;21.10;;;;;;;-2.92;70.84;99859.14;436160;1252;107455;-40
2023/02/28 01:34:21;;;;;;;40.20;17.70;;;;;;;-3.15;70.87;99852.39;435876;1253;98012;-40
2023/02/28 01:45:12;;;;;;;64.00;27.20;;;;;;;-3.39;70.81;99849.84;435932;1252;108455;-39
2023/02/28 01:55:17;;;;;;;56.90;26.20;;;;;;;-3.54;70.92;99852.44;436009;1259;98545;-40
2023/02/28 02:05:28;;;;;;;60.50;23.30;;;;;;;-3.57;71.56;99854.23;435829;1253;112733;-40
2023/02/28 02:25:46;;;;;;;64.50;29.90;;;;;;;-3.76;72.04;99861.98;436932;1248;99074;-39
2023/02/28 02:35:51;;;;;;;68.90;28.70;;;;;;;-3.92;72.05;99865.35;435784;1253;111132;-39
2023/02/28 02:45:59;;;;;;;70.10;31.40;;;;;;;-4.10;72.34;99860.77;436559;1253;107624;-40
2023/02/28 02:56:04;;;;;;;85.50;35.20;;;;;;;-4.26;72.62;99849.45;435842;1252;99250;-40
2023/02/28 03:26:38;;;;;;;64.90;34.40;;;;;;;-4.76;72.87;99872.96;435927;1252;448579;-40
2023/02/28 03:36:48;;;;;;;70.40;34.50;;;;;;;-4.79;73.03;99868.75;435585;1255;106840;-40
2023/02/28 03:46:53;;;;;;;59.50;27.80;;;;;;;-4.78;73.29;99869.48;435520;1253;98014;-39
2023/02/28 04:07:09;;;;;;;89.70;39.10;;;;;;;-4.96;73.72;99876.72;435764;1249;97983;-40
2023/02/28 04:17:17;;;;;;;82.30;39.40;;;;;;;-5.19;73.85;99870.52;435608;1254;109201;-39
2023/02/28 04:27:26;;;;;;;80.60;38.40;;;;;;;-5.38;74.02;99876.04;435657;1249;108250;-38
2023/02/28 04:37:34;;;;;;;102.80;52.50;;;;;;;-5.43;74.16;99881.86;435465;1254;98841;-40
2023/02/28 04:47:41;;;;;;;96.40;46.00;;;;;;;-5.42;74.33;99886.27;435581;1263;108830;-40
2023/02/28 04:57:49;;;;;;;84.90;40.90;;;;;;;-5.30;74.49;99899.88;435546;1263;98015;-39
2023/02/28 05:18:02;;;;;;;86.70;43.80;;;;;;;-5.21;74.70;99916.16;435580;1251;107170;-40
2023/02/28 05:28:09;;;;;;;85.80;45.40;;;;;;;-5.09;74.83;99920.73;436976;1254;99311;-40
2023/02/28 05:38:16;;;;;;;78.20;40.80;;;;;;;-5.18;74.65;99922.36;436502;1263;107868;-41
2023/02/28 05:48:25;;;;;;;112.60;55.10;;;;;;;-5.01;75.26;99928.15;436960;1254;98820;-39
2023/02/28 05:58:34;;;;;;;98.30;45.80;;;;;;;-4.97;74.98;99943.33;435563;1263;111833;-39
2023/02/28 06:08:43;;;;;;;114.10;50.50;;;;;;;-4.88;75.23;99956.05;435611;1263;108165;-39
2023/02/28 06:18:50;;;;;;;103.10;46.00;;;;;;;-4.62;75.44;99962.70;435733;1249;99239;-39
2023/02/28 06:28:58;;;;;;;151.00;62.30;;;;;;;-4.24;75.89;99977.40;435602;1254;108381;-39
2023/02/28 06:39:05;;;;;;;144.50;61.20;;;;;;;-3.10;77.17;99971.11;435621;1254;99253;-39
2023/02/28 06:49:14;;;;;;;68.90;32.80;;;;;;;-1.36;76.61;99971.67;435644;1249;112080;-42
2023/02/28 06:59:21;;;;;;;71.80;30.90;;;;;;;-0.48;75.34;99980.01;435687;1254;108802;-40
2023/02/28 07:19:35;;;;;;;56.00;22.70;;;;;;;0.42;74.31;99977.63;437230;1254;112253;-39
2023/02/28 07:29:42;;;;;;;41.20;20.10;;;;;;;0.84;73.72;99973.71;437641;1254;108933;-40
2023/02/28 07:39:51;;;;;;;29.70;14.00;;;;;;;1.45;73.74;99976.13;437643;1253;98573;-40
2023/02/28 07:49:58;;;;;;;21.50;12.00;;;;;;;1.67;72.88;99972.00;438606;1251;98192;-40
2023/02/28 08:00:05;;;;;;;18.60;10.60;;;;;;;2.55;72.70;99958.92;436401;1263;111919;-40
2023/02/28 08:10:13;;;;;;;20.30;11.40;;;;;;;3.10;70.74;99956.56;436795;1253;109333;-40
2023/02/28 08:20:20;;;;;;;11.80;6.60;;;;;;;3.89;70.56;99952.89;435821;1251;99238;-40
2023/02/28 08:30:26;;;;;;;6.10;4.40;;;;;;;3.70;68.10;99953.42;435754;1249;111360;-40
2023/02/28 08:40:34;;;;;;;12.30;7.00;;;;;;;3.15;67.01;99955.70;435686;1253;108584;-41
2023/02/28 08:50:41;;;;;;;9.80;6.60;;;;;;;3.28;66.57;99956.17;435675;1251;118603;-39
2023/02/28 09:00:49;;;;;;;;;;;;;;;3.42;65.71;99952.27;435848;1254;111874;-39
2023/02/28 09:21:03;;;;;;;18.40;7.50;;;;;;;2.88;63.34;99960.10;435861;1252;99224;-39
2023/02/28 09:31:13;;;;;;;14.50;7.70;;;;;;;2.89;63.61;99955.69;435657;1253;108092;-41
2023/02/28 09:41:23;;;;;;;14.60;8.50;;;;;;;2.95;62.13;99954.92;435909;1249;98844;-40
2023/02/28 10:01:49;;;;;;;17.20;8.70;;;;;;;2.84;61.91;99960.81;435954;1251;108219;-40
2023/02/28 10:12:02;;;;;;;15.90;8.70;;;;;;;2.92;62.15;99953.11;436822;1253;99228;-40
2023/02/28 10:22:10;;;;;;;18.50;9.30;;;;;;;3.24;62.26;99954.83;436956;1252;111986;-41
2023/02/28 10:32:18;;;;;;;18.40;10.20;;;;;;;3.37;61.72;99955.30;435866;1252;107737;-39
2023/02/28 10:42:25;;;;;;;21.70;10.50;;;;;;;3.16;61.25;99953.22;435720;1250;98825;-40
2023/02/28 10:52:40;;;;;;;16.60;9.70;;;;;;;3.07;61.24;99950.27;435837;1253;112191;-40
2023/02/28 11:02:48;;;;;;;13.00;8.30;;;;;;;3.08;61.27;99939.33;435876;1254;109170;-40
2023/02/28 11:12:55;;;;;;;17.40;9.40;;;;;;;3.28;60.98;99937.55;435874;1251;99265;-40
2023/02/28 11:23:02;;;;;;;;;;;;;;;3.29;60.19;99933.31;435766;1254;111819;-40
2023/02/28 11:43:42;;;;;;;18.40;10.40;;;;;;;3.36;59.92;99922.77;435909;1249;98839;-40
2023/02/28 11:53:59;;;;;;;18.20;9.80;;;;;;;3.41;59.41;99919.34;435790;1253;107019;-40
2023/02/28 12:04:23;;;;;;;19.60;10.50;;;;;;;3.31;59.16;99910.54;435760;1254;98813;-39
2023/02/28 12:14:55;;;;;;;22.30;9.50;;;;;;;3.28;58.31;99903.76;435790;1249;110714;-40
2023/02/28 12:25:22;;;;;;;19.70;10.40;;;;;;;3.07;58.00;99891.20;435752;1253;107902;-40
2023/02/28 12:35:30;;;;;;;18.00;9.30;;;;;;;2.80;58.61;99882.87;435840;1249;99209;-41
2023/02/28 12:45:38;;;;;;;18.50;10.40;;;;;;;2.84;58.82;99871.88;435798;1253;111013;-41
2023/02/28 12:55:47;;;;;;;19.00;9.90;;;;;;;2.74;58.36;99861.48;435811;1252;107086;-41
2023/02/28 13:06:17;;;;;;;21.00;11.00;;;;;;;2.75;58.00;99859.64;435929;1253;98018;-38
2023/02/28 13:16:25;;;;;;;18.60;9.30;;;;;;;2.75;57.22;99859.70;435782;1250;109312;-40
2023/02/28 13:57:53;;;;;;;17.10;10.10;;;;;;;3.02;57.55;99841.70;435717;1249;108419;-40
2023/02/28 14:08:06;;;;;;;12.70;8.70;;;;;;;3.00;57.84;99835.39;435657;1250;98809;-41
2023/02/28 14:18:34;;;;;;;27.50;13.10;;;;;;;2.90;57.46;99826.17;435763;1250;111757;-41
2023/02/28 14:28:47;;;;;;;19.30;10.10;;;;;;;2.84;57.66;99833.89;436171;1251;107701;-41
2023/02/28 14:38:57;;;;;;;16.60;9.50;;;;;;;2.76;57.93;99829.45;436453;1251;98713;-41
2023/02/28 14:59:25;;;;;;;21.10;10.80;;;;;;;2.64;58.13;99818.96;436460;1251;108226;-40
2023/02/28 15:09:32;;;;;;;16.80;10.80;;;;;;;2.47;58.21;99813.13;436581;1247;99160;-40
2023/02/28 15:19:46;;;;;;;20.10;10.70;;;;;;;2.34;58.26;99807.42;436505;1251;112130;-41
2023/02/28 15:30:07;;;;;;;21.20;11.00;;;;;;;2.28;58.57;99800.05;423157;1294;635769;-39
2023/02/28 15:40:13;;;;;;;30.60;13.50;;;;;;;2.14;58.53;99796.16;433271;1257;433044;-41
2023/02/28 15:50:21;;;;;;;20.20;13.00;;;;;;;1.99;58.29;99796.44;434016;1261;107917;-41
2023/02/28 16:00:32;;;;;;;28.60;16.20;;;;;;;1.82;58.85;99796.77;434642;1261;108067;-40
2023/02/28 16:10:40;;;;;;;35.60;16.30;;;;;;;1.64;59.18;99798.89;434726;1262;95762;-45
2023/02/28 16:20:47;;;;;;;71.70;26.60;;;;;;;1.39;59.72;99795.64;434004;1262;95463;-40
2023/02/28 16:30:55;;;;;;;46.70;20.60;;;;;;;1.03;60.42;99805.92;433972;1262;108945;-40
2023/02/28 16:41:03;;;;;;;31.70;16.70;;;;;;;0.52;60.62;99817.94;435035;1257;106986;-40
2023/02/28 16:51:10;;;;;;;35.50;15.50;;;;;;;0.15;61.18;99827.66;435753;1253;107223;-41
2023/02/28 17:11:27;;;;;;;49.50;21.40;;;;;;;-0.36;62.28;99843.36;435935;1251;95636;-40
2023/02/28 17:21:36;;;;;;;48.80;20.40;;;;;;;-0.58;62.79;99844.18;435849;1252;108233;-40
2023/02/28 17:31:43;;;;;;;49.60;21.40;;;;;;;-0.87;63.18;99852.35;435633;1253;107584;-39
2023/02/28 17:51:59;;;;;;;71.40;28.70;;;;;;;-1.33;64.04;99854.36;437012;1253;96167;-40
2023/02/28 18:02:07;;;;;;;71.70;28.80;;;;;;;-1.49;64.48;99851.86;435728;1253;109390;-40
2023/02/28 18:12:14;;;;;;;68.30;26.40;;;;;;;-1.63;64.77;99854.31;435658;1253;109562;-40
2023/02/28 18:22:22;;;;;;;54.50;25.90;;;;;;;-1.66;65.30;99855.46;435685;1252;95288;-40
2023/02/28 18:32:30;;;;;;;130.20;49.90;;;;;;;-1.61;65.87;99860.42;435733;1253;109510;-40
2023/02/28 18:52:45;;;;;;;131.70;46.20;;;;;;;-2.00;66.45;99864.89;435767;1253;107622;-39
2023/02/28 19:02:52;;;;;;;145.50;56.90;;;;;;;-2.20;66.87;99861.45;436372;1261;96184;-41
2023/02/28 19:13:03;;;;;;;229.20;86.50;;;;;;;-2.44;67.33;99857.40;435764;1255;96841;-40
2023/02/28 19:33:15;;;;;;;223.80;86.20;;;;;;;-2.90;67.77;99864.67;437745;1255;95262;-40
2023/02/28 19:43:21;;;;;;;215.70;88.00;;;;;;;-3.08;68.28;99866.17;438552;1253;96142;-39
2023/02/28 19:53:27;;;;;;;212.60;84.40;;;;;;;-3.20;68.80;99862.72;439541;1253;96151;-39
2023/02/28 20:03:34;;;;;;;170.70;82.30;;;;;;;-3.20;68.71;99869.50;438707;1263;109150;-40
2023/02/28 20:13:42;;;;;;;174.80;81.80;;;;;;;-3.15;69.02;99865.98;437800;1251;109375;-40
2023/02/28 20:23:48;;;;;;;196.50;82.50;;;;;;;-3.07;69.32;99859.69;435810;1251;96088;-40
2023/02/28 20:33:54;;;;;;;300.00;120.20;;;;;;;-2.98;69.76;99861.65;436017;1253;108265;-39
2023/02/28 20:44:01;;;;;;;266.00;96.30;;;;;;;-3.13;69.49;99853.63;436797;1254;107410;-39
2023/02/28 21:04:13;;;;;;;243.80;94.10;;;;;;;-3.58;69.92;99854.83;435898;1253;96216;-40
2023/02/28 21:14:19;;;;;;;244.60;91.60;;;;;;;-3.71;70.19;99860.58;439456;1253;108989;-45
2023/02/28 21:24:27;;;;;;;263.10;91.30;;;;;;;-3.85;70.36;99854.37;440183;1253;107955;-40
2023/02/28 21:54:44;;;;;;;281.60;104.70;;;;;;;-4.03;70.59;99848.23;435842;1251;109188;-40
2023/02/28 22:04:50;;;;;;;305.00;103.40;;;;;;;-3.97;71.01;99862.25;437413;1253;109002;-41
2023/02/28 22:25:03;;;;;;;;;;;;;;;-4.06;71.34;99870.98;435961;1254;107973;-38
2023/02/28 22:35:11;;;;;;;352.60;127.80;;;;;;;-4.38;71.38;99886.23;436241;1251;95449;-40
2023/02/28 22:45:18;;;;;;;344.30;117.30;;;;;;;-4.50;71.87;99906.53;437294;1253;96488;-39
2023/02/28 22:55:25;;;;;;;354.40;121.40;;;;;;;-4.68;71.74;99904.61;439922;1252;95291;-39
2023/02/28 23:05:31;;;;;;;312.80;110.10;;;;;;;-4.76;71.76;99896.91;439604;1253;109316;-40
2023/02/28 23:15:41;;;;;;;267.70;112.80;;;;;;;-4.83;72.00;99896.34;436217;1252;107179;-40
2023/02/28 23:25:48;;;;;;;279.90;111.30;;;;;;;-4.83;72.27;99894.98;436588;1250;107041;-40
2023/02/28 23:35:56;;;;;;;259.30;95.20;;;;;;;-4.81;72.29;99893.45;436050;1253;96346;-40
2023/02/28 23:46:04;;;;;;;305.70;111.30;;;;;;;-4.71;72.78;99890.55;435978;1253;109323;-40
2023/02/28 23:56:13;;;;;;;307.20;107.60;;;;;;;-4.75;72.85;99892.73;436099;1255;108162;-40
